Time;durP1;ratioP1;P1;durP2;ratioP2;P2;SDS_P1;SDS_P2;PMS_P1;PMS_P2;Temp;Humidity;BMP_temperature;BMP_pressure;BME280_temperature;BME280_humidity;BME280_pressure;Samples;Min_cycle;Max_cycle;Signal;HPM_P1;HPM_P2
2022/02/05 00:00:27;;;;;;;1999.90;999.90;;;4.30;99.90;;;;;;5074208;28;20173;-75
2022/02/05 00:05:39;;;;;;;1999.90;999.90;;;4.20;99.90;;;;;;5073855;28;20155;-75
2022/02/05 00:43:10;;;;;;;1999.90;999.90;;;4.10;99.90;;;;;;5073457;28;20628;-72
2022/02/05 00:45:40;;;;;;;1999.90;999.90;;;4.10;99.90;;;;;;5073045;28;20175;-72
2022/02/05 00:48:06;;;;;;;1999.90;999.90;;;4.10;99.90;;;;;;5073211;28;20575;-72
2022/02/05 00:50:35;;;;;;;1999.90;999.90;;;4.20;99.90;;;;;;5072475;28;20171;-72
2022/02/05 00:53:07;;;;;;;1999.90;999.90;;;4.20;99.90;;;;;;5072968;28;20163;-72
2022/02/05 00:55:36;;;;;;;1999.90;999.90;;;4.30;99.90;;;;;;5072701;28;20173;-72
2022/02/05 00:58:03;;;;;;;1999.90;999.90;;;4.30;99.90;;;;;;5073115;28;20240;-72
2022/02/05 01:00:30;;;;;;;1999.90;999.90;;;4.30;99.90;;;;;;5072978;28;20171;-72
2022/02/05 01:02:57;;;;;;;1999.90;999.90;;;4.40;99.90;;;;;;5073035;28;20566;-72
2022/02/05 01:05:23;;;;;;;1999.90;999.90;;;4.40;99.90;;;;;;5072634;28;20175;-72
2022/02/05 01:07:49;;;;;;;1999.90;999.90;;;4.40;99.90;;;;;;5073137;28;20189;-72
2022/02/05 01:10:16;;;;;;;1999.90;999.90;;;4.30;99.90;;;;;;5073295;28;20159;-72
2022/02/05 01:12:53;;;;;;;1999.90;999.90;;;4.30;99.90;;;;;;5069784;28;20562;-73
2022/02/05 01:15:22;;;;;;;1999.90;999.90;;;4.30;99.90;;;;;;5069477;28;20386;-73
2022/02/05 01:17:54;;;;;;;1999.90;999.90;;;4.30;99.90;;;;;;5070171;28;20215;-73
2022/02/05 01:23:08;;;;;;;1999.90;999.90;;;4.30;99.90;;;;;;5069610;28;20194;-74
2022/02/05 01:25:40;;;;;;;1999.90;999.90;;;4.30;99.90;;;;;;5068075;28;20168;-74
2022/02/05 01:28:17;;;;;;;1999.90;999.90;;;4.30;99.90;;;;;;5069493;28;20183;-74
2022/02/05 01:30:47;;;;;;;1999.90;999.90;;;4.30;99.90;;;;;;5070182;28;20201;-74
2022/02/05 01:57:06;;;;;;;1999.90;999.90;;;4.10;99.90;;;;;;5068539;28;20279;-74
2022/02/05 02:00:04;;;;;;;1999.90;999.90;;;4.10;99.90;;;;;;5068481;28;20250;-74
2022/02/05 02:05:13;;;;;;;1999.90;999.90;;;4.10;99.90;;;;;;5068240;28;20162;-74
2022/02/05 02:15:55;;;;;;;1999.90;999.90;;;4.00;99.90;;;;;;5068147;28;20210;-73
2022/02/05 02:21:08;;;;;;;1999.90;999.90;;;4.00;99.90;;;;;;5068018;28;20402;-74
2022/02/05 02:29:01;;;;;;;1999.90;999.90;;;4.00;99.90;;;;;;5054810;28;20693;-74
2022/02/05 02:31:32;;;;;;;1999.90;999.90;;;4.00;99.90;;;;;;5054619;28;20622;-73
2022/02/05 02:34:01;;;;;;;1999.90;999.90;;;4.00;99.90;;;;;;5054570;28;20629;-73
2022/02/05 02:39:01;;;;;;;1999.90;999.90;;;3.90;99.90;;;;;;5054842;28;20171;-74
2022/02/05 02:41:33;;;;;;;1999.90;999.90;;;3.90;99.90;;;;;;5054421;28;20155;-74
2022/02/05 02:43:58;;;;;;;1999.90;999.90;;;3.90;99.90;;;;;;5054406;28;20200;-73
2022/02/05 02:46:24;;;;;;;1999.90;999.90;;;3.90;99.90;;;;;;5054272;28;20191;-74
2022/02/05 02:48:50;;;;;;;1999.90;999.90;;;4.00;99.90;;;;;;5054362;28;20183;-73
2022/02/05 02:56:58;;;;;;;1999.90;999.90;;;3.90;99.90;;;;;;5054359;28;20206;-74
2022/02/05 02:59:27;;;;;;;1999.90;999.90;;;3.90;99.90;;;;;;5056038;28;20174;-74
2022/02/05 03:01:59;;;;;;;1999.90;999.90;;;3.90;99.90;;;;;;5054711;28;20176;-74
2022/02/05 03:04:25;;;;;;;1999.90;999.90;;;3.90;99.90;;;;;;5054252;28;20207;-74
2022/02/05 03:06:50;;;;;;;1999.90;999.90;;;3.90;99.90;;;;;;5055648;28;20222;-74
2022/02/05 03:09:17;;;;;;;1999.90;999.90;;;3.90;99.90;;;;;;5055923;28;20683;-74
2022/02/05 03:11:42;;;;;;;1999.90;999.90;;;3.90;99.90;;;;;;5055246;28;20210;-74
2022/02/05 03:14:08;;;;;;;1999.90;999.90;;;3.90;99.90;;;;;;5055307;28;20638;-74
2022/02/05 03:16:36;;;;;;;1999.90;999.90;;;3.90;99.90;;;;;;5055520;28;20183;-74
2022/02/05 03:19:11;;;;;;;1999.90;999.90;;;3.90;99.90;;;;;;5055445;28;20160;-73
2022/02/05 03:21:37;;;;;;;1999.90;999.90;;;3.90;99.90;;;;;;5055231;28;20539;-74
2022/02/05 03:24:04;;;;;;;1999.90;999.90;;;3.90;99.90;;;;;;5055023;28;20190;-73
2022/02/05 03:26:32;;;;;;;1999.90;999.90;;;3.80;99.90;;;;;;5054943;28;20688;-74
2022/02/05 03:28:58;;;;;;;1999.90;999.90;;;3.90;99.90;;;;;;5054901;28;20167;-74
2022/02/05 03:31:23;;;;;;;1999.90;999.90;;;3.80;99.90;;;;;;5054897;28;20195;-74
2022/02/05 03:33:49;;;;;;;1999.90;999.90;;;3.90;99.90;;;;;;5054323;28;20175;-74
2022/02/05 03:36:14;;;;;;;1999.90;999.90;;;3.80;99.90;;;;;;5053998;28;20202;-74
2022/02/05 03:38:40;;;;;;;1999.90;999.90;;;3.80;99.90;;;;;;5054717;28;20164;-74
2022/02/05 03:41:06;;;;;;;1999.90;999.90;;;3.80;99.90;;;;;;5054951;28;20530;-74
2022/02/05 03:43:31;;;;;;;1999.90;999.90;;;3.80;99.90;;;;;;5054448;28;20168;-74
2022/02/05 03:45:57;;;;;;;1999.90;999.90;;;3.80;99.90;;;;;;5054555;28;20183;-73
2022/02/05 03:48:22;;;;;;;1999.90;999.90;;;3.80;99.90;;;;;;5054569;28;20247;-74
2022/02/05 03:50:48;;;;;;;1999.90;999.90;;;3.80;99.90;;;;;;5054612;28;20241;-74
2022/02/05 03:53:14;;;;;;;1999.90;999.90;;;3.80;99.90;;;;;;5054263;28;20533;-74
2022/02/05 03:55:44;;;;;;;1999.90;999.90;;;3.80;99.90;;;;;;5054408;28;20171;-74
2022/02/05 03:58:10;;;;;;;1999.90;999.90;;;3.80;99.90;;;;;;5054376;28;20257;-74
2022/02/05 04:00:35;;;;;;;1999.90;999.90;;;3.80;99.90;;;;;;5054286;28;20164;-74
2022/02/05 04:03:02;;;;;;;1999.90;999.90;;;3.80;99.90;;;;;;5054419;28;20167;-74
2022/02/05 04:05:28;;;;;;;1999.90;999.90;;;3.70;99.90;;;;;;5054194;28;20156;-74
2022/02/05 04:07:55;;;;;;;1999.90;999.90;;;3.70;99.90;;;;;;5054165;28;20194;-74
2022/02/05 04:10:27;;;;;;;1999.90;999.90;;;3.70;99.90;;;;;;5054028;28;20460;-74
2022/02/05 04:18:22;;;;;;;1999.90;999.90;;;3.70;99.90;;;;;;5054060;28;20229;-74
2022/02/05 04:20:48;;;;;;;1999.90;999.90;;;3.70;99.90;;;;;;5053928;28;20192;-74
2022/02/05 04:23:14;;;;;;;1999.90;999.90;;;3.70;99.90;;;;;;5054002;28;20168;-74
2022/02/05 04:25:41;;;;;;;1999.90;999.90;;;3.70;99.90;;;;;;5053330;28;20521;-74
2022/02/05 04:28:07;;;;;;;1999.90;999.90;;;3.70;99.90;;;;;;5053587;28;20857;-74
2022/02/05 04:30:33;;;;;;;1999.90;999.90;;;3.70;99.90;;;;;;5054031;28;20254;-73
2022/02/05 04:32:58;;;;;;;1999.90;999.90;;;3.70;99.90;;;;;;5053485;28;20160;-74
2022/02/05 04:35:24;;;;;;;1999.90;999.90;;;3.70;99.90;;;;;;5053124;28;20915;-74
2022/02/05 04:37:52;;;;;;;1999.90;999.90;;;3.80;99.90;;;;;;5053468;28;20695;-74
2022/02/05 04:40:28;;;;;;;1999.90;999.90;;;3.80;99.90;;;;;;5053907;28;20163;-74
2022/02/05 05:08:39;;;;;;;1999.90;999.90;;;3.90;99.90;;;;;;5054879;28;20176;-73
2022/02/05 05:12:20;;;;;;;1999.90;999.90;;;3.90;99.90;;;;;;5054430;28;20757;-73
2022/02/05 05:19:15;;;;;;;1999.90;999.90;;;3.90;99.90;;;;;;5054192;28;20573;-73
2022/02/05 05:19:47;;;;;;;1999.90;999.90;;;3.80;99.90;;;;;;5054428;28;20549;-73
2022/02/05 05:22:11;;;;;;;1999.90;999.90;;;3.80;99.90;;;;;;5053734;28;20175;-73
2022/02/05 05:24:37;;;;;;;1999.90;999.90;;;3.80;99.90;;;;;;5054375;28;20172;-73
2022/02/05 05:27:02;;;;;;;1999.90;999.90;;;3.80;99.90;;;;;;5054173;28;20191;-73
2022/02/05 05:29:28;;;;;;;1999.90;999.90;;;3.80;99.90;;;;;;5054275;28;20175;-73
2022/02/05 05:31:53;;;;;;;1999.90;999.90;;;3.80;99.90;;;;;;5054285;28;20202;-74
2022/02/05 05:34:19;;;;;;;1999.90;999.90;;;3.90;99.90;;;;;;5054203;28;20164;-73
2022/02/05 05:36:45;;;;;;;1999.90;999.90;;;4.00;99.90;;;;;;5054736;28;20754;-73
2022/02/05 05:39:12;;;;;;;1999.90;999.90;;;4.10;99.90;;;;;;5054170;28;20628;-73
2022/02/05 05:41:39;;;;;;;1999.90;999.90;;;4.00;99.90;;;;;;5054546;28;20186;-73
2022/02/05 05:46:46;;;;;;;1999.90;999.90;;;4.10;99.90;;;;;;5053900;28;20187;-73
2022/02/05 05:51:37;;;;;;;1999.90;999.90;;;4.00;99.90;;;;;;5051936;28;20199;-73
2022/02/05 05:54:03;;;;;;;1999.90;999.90;;;4.00;99.90;;;;;;5051635;28;20171;-73
2022/02/05 05:56:30;;;;;;;1999.90;999.90;;;4.10;99.90;;;;;;5052030;28;20635;-73
2022/02/05 05:58:56;;;;;;;1999.90;999.90;;;4.10;99.90;;;;;;5057361;28;20163;-73
2022/02/05 06:01:22;;;;;;;1999.90;999.90;;;4.10;99.90;;;;;;5058381;28;20183;-73
2022/02/05 06:03:47;;;;;;;1999.90;999.90;;;4.10;99.90;;;;;;5057736;28;20167;-73
2022/02/05 06:06:13;;;;;;;1999.90;999.90;;;4.20;99.90;;;;;;5057431;28;20187;-73
2022/02/05 06:08:39;;;;;;;1999.90;999.90;;;4.20;99.90;;;;;;5057378;28;20251;-74
2022/02/05 06:11:05;;;;;;;1999.90;999.90;;;4.20;99.90;;;;;;5057624;28;20235;-73
2022/02/05 06:13:32;;;;;;;1999.90;999.90;;;4.10;99.90;;;;;;5057886;28;20160;-74
2022/02/05 06:15:59;;;;;;;1999.90;999.90;;;4.10;99.90;;;;;;5057369;28;20664;-73
2022/02/05 06:18:25;;;;;;;1999.90;999.90;;;4.10;99.90;;;;;;5057468;28;20163;-73
2022/02/05 06:20:51;;;;;;;1999.90;999.90;;;4.10;99.90;;;;;;5057516;28;20657;-73
2022/02/05 06:23:16;;;;;;;1999.90;999.90;;;4.00;99.90;;;;;;5058070;28;20168;-73
2022/02/05 06:25:42;;;;;;;1999.90;999.90;;;4.00;99.90;;;;;;5056532;28;20175;-73
2022/02/05 06:28:14;;;;;;;1999.90;999.90;;;3.90;99.90;;;;;;5058125;28;20274;-73
2022/02/05 06:30:40;;;;;;;1999.90;999.90;;;3.90;99.90;;;;;;5058047;28;20167;-73
2022/02/05 06:33:06;;;;;;;1999.90;999.90;;;3.80;99.90;;;;;;5057223;28;20253;-73
2022/02/05 06:35:32;;;;;;;1999.90;999.90;;;3.80;99.90;;;;;;5057538;28;20677;-73
2022/02/05 06:37:57;;;;;;;1999.90;999.90;;;3.90;99.90;;;;;;5058223;28;20249;-73
2022/02/05 06:40:23;;;;;;;1999.90;999.90;;;3.90;99.90;;;;;;5057126;28;20178;-73
2022/02/05 06:42:49;;;;;;;1999.90;999.90;;;3.80;99.90;;;;;;5057757;28;20172;-73
2022/02/05 06:45:16;;;;;;;1999.90;999.90;;;3.80;99.90;;;;;;5057636;28;20406;-73
2022/02/05 06:47:42;;;;;;;1999.90;999.90;;;3.80;99.90;;;;;;5057341;28;20203;-73
2022/02/05 06:50:08;;;;;;;1999.90;999.90;;;3.80;99.90;;;;;;5057257;28;20174;-73
2022/02/05 06:52:35;;;;;;;1999.90;999.90;;;3.70;99.90;;;;;;5058294;28;20269;-73
2022/02/05 06:55:01;;;;;;;1999.90;999.90;;;3.70;99.90;;;;;;5056942;28;20202;-73
2022/02/05 06:57:26;;;;;;;1999.90;999.90;;;3.70;99.90;;;;;;5057418;28;20183;-73
2022/02/05 06:59:52;;;;;;;1999.90;999.90;;;3.70;99.90;;;;;;5057544;28;20274;-73
2022/02/05 07:02:18;;;;;;;1999.90;999.90;;;3.70;99.90;;;;;;5058076;28;20168;-73
2022/02/05 07:04:45;;;;;;;1999.90;999.90;;;3.70;99.90;;;;;;5057545;28;20183;-73
2022/02/05 07:07:10;;;;;;;1999.90;999.90;;;3.60;99.90;;;;;;5057244;28;20188;-73
2022/02/05 07:09:37;;;;;;;1999.90;999.90;;;3.60;99.90;;;;;;5057596;28;20202;-73
2022/02/05 07:12:04;;;;;;;1999.90;999.90;;;3.60;99.90;;;;;;5057760;28;20295;-73
2022/02/05 07:14:38;;;;;;;1999.90;999.90;;;3.60;99.90;;;;;;5056329;28;20175;-73
2022/02/05 07:20:03;;;;;;;1999.90;999.90;;;3.60;99.90;;;;;;5053567;28;20172;-73
2022/02/05 07:22:35;;;;;;;1999.90;999.90;;;3.60;99.90;;;;;;5054816;28;20663;-73
2022/02/05 07:29:13;;;;;;;1999.90;999.90;;;3.60;99.90;;;;;;5055850;28;20167;-73
2022/02/05 07:30:36;;;;;;;1999.90;999.90;;;3.60;99.90;;;;;;5055797;28;20202;-73
2022/02/05 07:33:01;;;;;;;1999.90;999.90;;;3.60;99.90;;;;;;5056164;28;20163;-73
2022/02/05 07:35:27;;;;;;;1999.90;999.90;;;3.60;99.90;;;;;;5057500;28;20243;-73
2022/02/05 07:37:56;;;;;;;1999.90;999.90;;;3.60;99.90;;;;;;5056125;28;20199;-73
2022/02/05 07:40:21;;;;;;;1999.90;999.90;;;3.60;99.90;;;;;;5058053;28;20213;-73
2022/02/05 07:42:47;;;;;;;1999.90;999.90;;;3.60;99.90;;;;;;5057397;28;20175;-73
2022/02/05 07:45:12;;;;;;;1999.90;999.90;;;3.60;99.90;;;;;;5057105;28;20168;-73
2022/02/05 07:47:38;;;;;;;1999.90;999.90;;;3.70;99.90;;;;;;5057339;28;20198;-73
2022/02/05 07:50:04;;;;;;;1999.90;999.90;;;3.70;99.90;;;;;;5057214;28;20176;-73
2022/02/05 07:52:30;;;;;;;1999.90;999.90;;;3.70;99.90;;;;;;5056883;28;20199;-73
2022/02/05 07:54:55;;;;;;;1999.90;999.90;;;3.70;99.90;;;;;;5056713;28;20172;-73
2022/02/05 07:57:21;;;;;;;1999.90;999.90;;;3.70;99.90;;;;;;5056244;28;20183;-73
2022/02/05 07:59:47;;;;;;;1999.90;999.90;;;3.80;99.90;;;;;;5056735;28;20515;-74
2022/02/05 08:02:12;;;;;;;1999.90;999.90;;;3.80;99.90;;;;;;5056495;28;20196;-73
2022/02/05 08:04:38;;;;;;;1999.90;999.90;;;3.80;99.90;;;;;;5056377;28;20413;-74
2022/02/05 08:07:06;;;;;;;1999.90;999.90;;;3.80;99.90;;;;;;5056294;28;20191;-74
2022/02/05 08:09:58;;;;;;;1999.90;999.90;;;3.90;99.90;;;;;;5056100;28;20187;-74
2022/02/05 08:12:19;;;;;;;1999.90;999.90;;;3.90;99.90;;;;;;5056250;28;20749;-73
2022/02/05 08:14:48;;;;;;;1999.90;999.90;;;3.90;99.90;;;;;;5056421;28;20171;-73
2022/02/05 08:17:21;;;;;;;1999.90;999.90;;;3.90;99.90;;;;;;5054330;28;20214;-74
2022/02/05 08:19:47;;;;;;;1999.90;999.90;;;3.90;99.90;;;;;;5054985;28;20250;-74
2022/02/05 08:22:14;;;;;;;1999.90;999.90;;;4.00;99.90;;;;;;5054396;28;20259;-74
2022/02/05 08:24:40;;;;;;;1999.90;999.90;;;4.10;99.90;;;;;;5054705;28;20176;-73
2022/02/05 08:27:06;;;;;;;1999.90;999.90;;;4.10;99.90;;;;;;5054976;28;20313;-73
2022/02/05 08:29:33;;;;;;;1999.90;999.90;;;4.10;99.90;;;;;;5056160;28;20413;-73
2022/02/05 08:31:59;;;;;;;1999.90;999.90;;;4.10;99.90;;;;;;5055542;28;20484;-73
2022/02/05 08:34:24;;;;;;;1999.90;999.90;;;4.20;99.90;;;;;;5054236;28;20556;-73
2022/02/05 08:36:51;;;;;;;1999.90;999.90;;;4.20;99.90;;;;;;5055131;28;20190;-73
2022/02/05 08:39:20;;;;;;;1999.90;999.90;;;4.30;99.90;;;;;;5055392;28;20536;-73
2022/02/05 08:41:45;;;;;;;1999.90;999.90;;;4.30;99.90;;;;;;5055184;28;20202;-73
2022/02/05 08:44:11;;;;;;;1999.90;999.90;;;4.30;99.90;;;;;;5054443;28;20164;-73
2022/02/05 08:46:37;;;;;;;1999.90;999.90;;;4.40;99.90;;;;;;5055258;28;20251;-73
2022/02/05 08:49:04;;;;;;;1999.90;999.90;;;4.40;99.90;;;;;;5055130;28;20489;-73
2022/02/05 08:51:31;;;;;;;1999.90;999.90;;;4.50;99.90;;;;;;5052316;28;20253;-73
2022/02/05 08:53:56;;;;;;;1999.90;999.90;;;4.50;99.90;;;;;;5052321;28;20172;-73
2022/02/05 08:56:23;;;;;;;1999.90;999.90;;;4.50;99.90;;;;;;5052080;28;20687;-73
2022/02/05 08:58:51;;;;;;;1999.90;999.90;;;4.60;99.90;;;;;;5052385;28;20163;-73
2022/02/05 09:01:22;;;;;;;1999.90;999.90;;;4.60;99.90;;;;;;5052287;28;20661;-73
2022/02/05 09:04:00;;;;;;;1999.90;999.90;;;4.70;99.90;;;;;;5052221;28;20171;-73
2022/02/05 09:06:29;;;;;;;1999.90;999.90;;;4.90;99.90;;;;;;5052520;28;20195;-73
2022/02/05 09:09:08;;;;;;;1999.90;999.90;;;4.90;99.90;;;;;;5054064;28;20537;-73
2022/02/05 09:11:42;;;;;;;1999.90;999.90;;;4.90;99.90;;;;;;5052897;28;20241;-73
2022/02/05 09:17:04;;;;;;;1999.90;999.90;;;5.00;99.90;;;;;;5048334;28;20430;-73
2022/02/05 09:19:32;;;;;;;1999.90;999.90;;;5.00;99.90;;;;;;5053182;28;20167;-73
2022/02/05 09:22:00;;;;;;;1999.90;999.90;;;5.10;99.90;;;;;;5053195;28;20444;-74
2022/02/05 09:24:25;;;;;;;1999.90;999.90;;;5.20;99.90;;;;;;5052111;28;20659;-74
2022/02/05 09:26:59;;;;;;;1999.90;999.90;;;5.20;99.90;;;;;;5052892;28;20274;-73
2022/02/05 09:29:25;;;;;;;1999.90;999.90;;;5.20;99.90;;;;;;5052501;28;20167;-73
2022/02/05 09:31:51;;;;;;;1999.90;999.90;;;5.30;99.90;;;;;;5052277;28;20445;-73
2022/02/05 09:34:17;;;;;;;1999.90;999.90;;;5.20;99.90;;;;;;5055417;28;20217;-73
2022/02/05 09:36:43;;;;;;;1999.90;999.90;;;5.30;99.90;;;;;;5055107;28;20772;-73
2022/02/05 09:39:10;;;;;;;1999.90;999.90;;;5.40;99.90;;;;;;5055918;28;20202;-73
2022/02/05 09:41:37;;;;;;;1999.90;999.90;;;5.40;99.90;;;;;;5053684;28;20508;-73
2022/02/05 09:44:04;;;;;;;1999.90;999.90;;;5.50;99.90;;;;;;5055537;28;20457;-74
2022/02/05 09:46:30;;;;;;;1999.90;999.90;;;5.50;99.90;;;;;;5055355;28;20931;-73
2022/02/05 09:48:57;;;;;;;1999.90;999.90;;;5.50;99.90;;;;;;5055231;28;20217;-74
2022/02/05 09:51:34;;;;;;;1999.90;999.90;;;5.50;99.90;;;;;;5057121;28;20195;-74
2022/02/05 09:54:01;;;;;;;1999.90;999.90;;;5.50;99.90;;;;;;5056545;28;20199;-74
2022/02/05 09:56:29;;;;;;;1999.90;999.90;;;5.50;99.90;;;;;;5056193;28;20432;-75
2022/02/05 09:58:55;;;;;;;1999.90;999.90;;;5.60;99.90;;;;;;5056571;28;20175;-75
2022/02/05 10:01:27;;;;;;;1999.90;999.90;;;5.60;99.90;;;;;;5058130;28;20182;-76
2022/02/05 10:03:53;;;;;;;1999.90;999.90;;;5.70;99.90;;;;;;5056788;28;20489;-76
2022/02/05 10:06:24;;;;;;;1999.90;999.90;;;5.70;99.90;;;;;;5056792;28;20215;-76
2022/02/05 10:09:07;;;;;;;1999.90;999.90;;;5.70;99.90;;;;;;5057177;28;20445;-75
2022/02/05 10:11:59;;;;;;;1999.90;999.90;;;5.80;99.90;;;;;;5056412;28;20455;-75
2022/02/05 10:14:29;;;;;;;1999.90;999.90;;;5.80;99.90;;;;;;5055995;28;20406;-75
2022/02/05 10:16:57;;;;;;;1999.90;999.90;;;6.00;99.90;;;;;;5057518;28;20672;-74
2022/02/05 10:19:25;;;;;;;1999.90;999.90;;;6.10;99.90;;;;;;5056687;28;20191;-73
2022/02/05 10:22:05;;;;;;;1999.90;999.90;;;6.30;99.90;;;;;;5056731;28;20456;-72
2022/02/05 10:24:31;;;;;;;1999.90;999.90;;;6.50;99.90;;;;;;5056599;28;20414;-72
2022/02/05 10:26:58;;;;;;;1999.90;999.90;;;6.70;99.90;;;;;;5056722;28;20838;-72
2022/02/05 10:29:25;;;;;;;1999.90;999.90;;;6.70;99.90;;;;;;5055766;28;20171;-72
2022/02/05 10:32:07;;;;;;;1999.90;999.90;;;6.70;99.90;;;;;;5054992;28;20442;-72
2022/02/05 10:34:56;;;;;;;1999.90;999.90;;;6.70;99.90;;;;;;5056221;28;20414;-72
2022/02/05 10:37:26;;;;;;;1999.90;999.90;;;6.70;99.90;;;;;;5054938;28;20526;-72
2022/02/05 10:45:14;;;;;;;1999.90;999.90;;;6.80;99.90;;;;;;5055257;28;20410;-72
2022/02/05 10:47:55;;;;;;;1999.90;999.90;;;6.80;99.90;;;;;;5055654;28;20430;-72
2022/02/05 10:50:29;;;;;;;1999.90;999.90;;;6.80;99.90;;;;;;5055618;28;20428;-72
2022/02/05 10:53:18;;;;;;;1999.90;999.90;;;6.90;99.90;;;;;;5055212;28;20471;-72
2022/02/05 10:58:21;;;;;;;1999.90;999.90;;;7.10;99.90;;;;;;5055556;28;20426;-72
2022/02/05 11:05:57;;;;;;;1999.90;999.90;;;7.20;99.90;;;;;;5054999;28;20178;-72
2022/02/05 11:08:24;;;;;;;1999.90;999.90;;;7.20;99.90;;;;;;5053476;28;20429;-72
2022/02/05 11:21:15;;;;;;;1999.90;999.90;;;8.00;99.90;;;;;;5053480;28;20456;-72
2022/02/05 11:23:49;;;;;;;1999.90;999.90;;;8.00;99.90;;;;;;5052788;28;20891;-72
2022/02/05 11:26:18;;;;;;;1999.90;999.90;;;7.90;99.90;;;;;;5053021;28;20631;-72
2022/02/05 11:28:49;;;;;;;1999.90;999.90;;;7.80;99.90;;;;;;5052718;28;20417;-72
2022/02/05 11:31:30;;;;;;;1999.90;999.90;;;7.80;99.90;;;;;;5052744;28;20446;-72
2022/02/05 11:34:14;;;;;;;1999.90;999.90;;;7.80;99.90;;;;;;5053019;28;20472;-72
2022/02/05 11:36:44;;;;;;;1999.90;999.90;;;7.60;99.90;;;;;;5052777;28;20845;-72
2022/02/05 11:39:16;;;;;;;1999.90;999.90;;;7.50;99.90;;;;;;5052574;28;20406;-72
2022/02/05 11:41:44;;;;;;;1999.90;999.90;;;7.70;99.90;;;;;;5052854;28;20957;-72
2022/02/05 11:44:16;;;;;;;1999.90;999.90;;;8.20;99.90;;;;;;5052496;28;20402;-72
2022/02/05 11:46:43;;;;;;;1999.90;999.90;;;8.80;99.90;;;;;;5085405;22;20967;-74
2022/02/05 11:49:10;;;;;;;1999.90;999.90;;;9.60;99.90;;;;;;5015682;28;21181;-73
2022/02/05 11:51:46;;;;;;;1999.90;999.90;;;10.20;99.90;;;;;;5015827;28;20465;-74
2022/02/05 11:54:16;;;;;;;1999.90;999.90;;;10.60;99.90;;;;;;5015534;28;20406;-74
2022/02/05 11:57:02;;;;;;;1999.90;999.90;;;10.60;99.90;;;;;;5014914;28;20912;-74
2022/02/05 11:59:56;;;;;;;1999.90;999.90;;;10.70;99.90;;;;;;5015564;28;20483;-74
2022/02/05 12:02:23;;;;;;;1999.90;999.90;;;10.50;99.90;;;;;;5015155;28;20455;-74
2022/02/05 12:05:10;;;;;;;1999.90;999.90;;;10.60;99.90;;;;;;5015555;28;20924;-74
2022/02/05 12:07:36;;;;;;;1999.90;999.90;;;11.10;99.90;;;;;;5015506;28;20522;-74
2022/02/05 12:10:21;;;;;;;1999.90;999.90;;;11.10;99.90;;;;;;5015671;28;20469;-74
2022/02/05 12:12:50;;;;;;;1999.90;999.90;;;10.90;99.90;;;;;;5015704;28;20262;-73
2022/02/05 12:15:16;;;;;;;1999.90;999.90;;;10.70;99.90;;;;;;5015417;28;20803;-74
2022/02/05 12:18:11;;;;;;;1999.90;999.90;;;10.70;99.90;;;;;;5016310;28;20449;-73
2022/02/05 12:20:59;;;;;;;1999.90;999.90;;;10.40;99.90;;;;;;5015888;28;20402;-74
2022/02/05 12:24:14;;;;;;;1999.90;999.90;;;10.20;99.90;;;;;;5014821;28;20397;-74
2022/02/05 12:26:30;;;;;;;1999.90;999.90;;;9.90;99.90;;;;;;5016387;28;20487;-73
2022/02/05 12:29:01;;;;;;;1999.90;999.90;;;10.00;99.90;;;;;;5014038;28;20409;-74
2022/02/05 12:31:30;;;;;;;1999.90;999.90;;;10.00;99.90;;;;;;5013154;28;20466;-74
2022/02/05 12:34:01;;;;;;;1999.90;999.90;;;9.80;99.90;;;;;;5012672;28;20411;-73
2022/02/05 12:36:28;;;;;;;1999.90;999.90;;;9.60;99.90;;;;;;5013998;28;20381;-73
2022/02/05 12:38:56;;;;;;;1999.90;999.90;;;9.80;99.90;;;;;;5013692;28;20400;-73
2022/02/05 12:41:24;;;;;;;1999.90;999.90;;;10.10;99.90;;;;;;5013359;28;20818;-73
2022/02/05 12:43:55;;;;;;;1999.90;999.90;;;10.40;99.90;;;;;;5013130;28;20416;-74
2022/02/05 12:46:29;;;;;;;1999.90;999.90;;;10.50;99.90;;;;;;5012707;28;20478;-74
2022/02/05 12:49:01;;;;;;;1999.90;999.90;;;10.70;99.90;;;;;;5012862;28;20456;-73
2022/02/05 12:51:28;;;;;;;1999.90;999.90;;;11.00;99.90;;;;;;5013526;28;20523;-74
2022/02/05 12:54:10;;;;;;;1999.90;999.90;;;10.70;99.90;;;;;;5012495;28;20467;-74
2022/02/05 12:56:39;;;;;;;1999.90;999.90;;;10.50;99.90;;;;;;5013120;28;20428;-73
2022/02/05 12:59:10;;;;;;;1999.90;999.90;;;10.40;99.90;;;;;;5012921;28;20402;-73
2022/02/05 13:01:51;;;;;;;1999.90;999.90;;;10.70;99.90;;;;;;5013173;28;20908;-75
2022/02/05 13:04:22;;;;;;;1999.90;999.90;;;11.30;99.90;;;;;;5012383;28;20415;-73
2022/02/05 13:07:21;;;;;;;1999.90;999.90;;;11.70;99.90;;;;;;5012729;28;20439;-73
2022/02/05 13:10:02;;;;;;;1999.90;999.90;;;11.70;99.90;;;;;;5012596;28;20481;-74
2022/02/05 13:12:40;;;;;;;1999.90;999.90;;;12.20;99.90;;;;;;5012479;28;20458;-73
2022/02/05 13:15:22;;;;;;;1999.90;999.90;;;12.80;99.90;;;;;;5012718;28;20403;-73
2022/02/05 13:26:09;;;;;;;1999.90;999.90;;;12.40;99.90;;;;;;5012337;28;20799;-74
2022/02/05 13:34:25;;;;;;;1999.90;999.90;;;11.90;99.90;;;;;;5012774;28;20404;-74
2022/02/05 13:36:55;;;;;;;1999.90;999.90;;;11.50;99.90;;;;;;5009354;28;20541;-73
2022/02/05 13:44:53;;;;;;;1999.90;999.90;;;10.70;99.90;;;;;;5011217;28;20427;-74
2022/02/05 13:47:20;;;;;;;1999.90;999.90;;;11.30;99.90;;;;;;5012447;28;20901;-74
2022/02/05 13:50:06;;;;;;;1999.90;999.90;;;12.10;99.90;;;;;;5012614;28;20417;-73
2022/02/05 13:52:33;;;;;;;1999.90;999.90;;;12.90;99.90;;;;;;5012063;28;20456;-74
2022/02/05 13:55:18;;;;;;;1999.90;999.90;;;13.40;99.90;;;;;;5011538;28;20961;-73
2022/02/05 13:58:07;;;;;;;1999.90;999.90;;;13.60;99.90;;;;;;5012890;28;20839;-74
2022/02/05 14:00:54;;;;;;;1999.90;999.90;;;14.30;99.90;;;;;;5010651;28;20779;-74
2022/02/05 14:03:36;;;;;;;1999.90;999.90;;;14.70;99.90;;;;;;5012359;28;20407;-74
2022/02/05 14:06:06;;;;;;;1999.90;999.90;;;15.10;99.90;;;;;;5011931;28;20400;-73
2022/02/05 14:08:37;;;;;;;1999.90;999.90;;;14.80;98.80;;;;;;5012431;28;20419;-73
2022/02/05 14:11:08;;;;;;;1999.90;999.90;;;14.80;99.50;;;;;;5012504;28;20446;-73
2022/02/05 14:13:34;;;;;;;1999.90;999.90;;;14.90;97.20;;;;;;5013143;28;20404;-72
2022/02/05 14:16:02;;;;;;;1999.90;999.90;;;14.50;96.10;;;;;;5012635;28;20400;-73
2022/02/05 14:18:30;;;;;;;1999.90;999.90;;;14.60;97.50;;;;;;5013096;28;20428;-73
2022/02/05 14:21:01;;;;;;;1999.90;999.90;;;14.50;96.30;;;;;;5016943;28;20438;-73
2022/02/05 14:23:29;;;;;;;1999.90;999.90;;;14.10;97.60;;;;;;5016086;28;20400;-73
2022/02/05 14:26:11;;;;;;;1999.90;999.90;;;14.30;98.90;;;;;;5016055;28;20534;-73
2022/02/05 14:28:57;;;;;;;1999.90;999.90;;;14.30;97.90;;;;;;5015211;28;20436;-73
2022/02/05 14:31:40;;;;;;;1999.90;999.90;;;14.40;97.00;;;;;;5016192;28;20541;-74
2022/02/05 14:42:12;;;;;;;1999.90;999.90;;;15.00;91.60;;;;;;5015397;28;20640;-73
2022/02/05 14:44:38;;;;;;;1999.90;999.90;;;14.90;91.30;;;;;;5014853;28;20415;-73
2022/02/05 14:47:05;;;;;;;1999.90;999.90;;;14.90;90.80;;;;;;5015608;28;20530;-71
2022/02/05 14:49:31;;;;;;;1999.90;999.90;;;15.00;89.60;;;;;;5016220;28;20420;-74
2022/02/05 14:52:01;;;;;;;1999.90;999.90;;;15.10;88.40;;;;;;5015467;28;20451;-72
2022/02/05 14:54:28;;;;;;;1999.90;999.90;;;15.10;85.60;;;;;;5016166;28;20658;-72
2022/02/05 14:56:54;;;;;;;1999.90;999.90;;;15.10;90.10;;;;;;5016186;28;21024;-73
2022/02/05 14:59:19;;;;;;;1999.90;999.90;;;15.30;81.80;;;;;;5015409;28;20493;-74
2022/02/05 15:01:45;;;;;;;1999.90;999.90;;;15.20;81.40;;;;;;5015903;28;20180;-74
2022/02/05 15:04:10;;;;;;;1999.90;999.90;;;15.00;77.80;;;;;;5015719;28;20195;-74
2022/02/05 15:06:36;;;;;;;1999.90;999.90;;;14.90;78.10;;;;;;5015407;28;20604;-74
2022/02/05 15:09:05;;;;;;;1999.90;999.90;;;14.30;71.30;;;;;;5014850;28;20177;-73
2022/02/05 15:11:31;;;;;;;1999.90;999.90;;;13.50;73.60;;;;;;5014630;28;20449;-73
2022/02/05 15:14:00;;;;;;;1999.90;999.90;;;12.80;79.20;;;;;;5014115;28;20417;-71
2022/02/05 15:16:27;;;;;;;1999.90;999.90;;;12.80;79.90;;;;;;5014700;28;20493;-71
2022/02/05 15:18:54;;;;;;;1999.90;999.90;;;12.60;84.30;;;;;;5014972;28;20922;-71
2022/02/05 15:21:25;;;;;;;1999.90;999.90;;;12.90;84.70;;;;;;5014726;28;20402;-72
2022/02/05 15:23:51;;;;;;;1999.90;999.90;;;13.10;81.40;;;;;;5013606;28;20765;-74
2022/02/05 15:26:18;;;;;;;1999.90;999.90;;;12.30;80.30;;;;;;5012509;28;20404;-74
2022/02/05 15:28:48;;;;;;;1999.90;999.90;;;11.50;86.70;;;;;;5014327;28;20172;-74